sensor_id;sensor_type;location;lat;lon;timestamp;P1;durP1;ratioP1;P2;durP2;ratioP2
19519;SDS011;9904;52.246;20.898;2022-12-31T00:01:26;69.77;;;28.87;;
19519;SDS011;9904;52.246;20.898;2022-12-31T00:03:53;67.83;;;29.63;;
19519;SDS011;9904;52.246;20.898;2022-12-31T00:06:22;65.83;;;28.47;;
19519;SDS011;9904;52.246;20.898;2022-12-31T00:08:54;69.97;;;29.67;;
19519;SDS011;9904;52.246;20.898;2022-12-31T00:11:22;71.13;;;29.70;;
19519;SDS011;9904;52.246;20.898;2022-12-31T00:13:50;67.50;;;29.93;;
19519;SDS011;9904;52.246;20.898;2022-12-31T00:16:18;67.87;;;29.13;;
19519;SDS011;9904;52.246;20.898;2022-12-31T00:18:50;69.63;;;30.43;;
19519;SDS011;9904;52.246;20.898;2022-12-31T00:21:19;68.00;;;29.57;;
19519;SDS011;9904;52.246;20.898;2022-12-31T00:23:46;68.53;;;28.70;;
19519;SDS011;9904;52.246;20.898;2022-12-31T00:26:15;67.17;;;28.80;;
19519;SDS011;9904;52.246;20.898;2022-12-31T00:28:44;71.83;;;30.67;;
19519;SDS011;9904;52.246;20.898;2022-12-31T00:31:12;64.43;;;30.17;;
19519;SDS011;9904;52.246;20.898;2022-12-31T00:33:38;67.07;;;29.87;;
19519;SDS011;9904;52.246;20.898;2022-12-31T00:36:12;66.67;;;30.70;;
19519;SDS011;9904;52.246;20.898;2022-12-31T00:38:41;76.20;;;31.07;;
19519;SDS011;9904;52.246;20.898;2022-12-31T00:41:09;65.20;;;30.07;;
19519;SDS011;9904;52.246;20.898;2022-12-31T00:43:35;70.23;;;30.10;;
19519;SDS011;9904;52.246;20.898;2022-12-31T00:46:03;64.60;;;30.00;;
19519;SDS011;9904;52.246;20.898;2022-12-31T00:48:31;65.43;;;29.50;;
19519;SDS011;9904;52.246;20.898;2022-12-31T00:50:58;70.00;;;30.30;;
19519;SDS011;9904;52.246;20.898;2022-12-31T00:53:25;70.43;;;30.20;;
19519;SDS011;9904;52.246;20.898;2022-12-31T00:55:52;61.57;;;27.40;;
19519;SDS011;9904;52.246;20.898;2022-12-31T00:58:25;59.40;;;27.83;;
19519;SDS011;9904;52.246;20.898;2022-12-31T01:00:52;60.37;;;27.47;;
19519;SDS011;9904;52.246;20.898;2022-12-31T01:03:19;60.77;;;27.33;;
19519;SDS011;9904;52.246;20.898;2022-12-31T01:05:45;65.60;;;27.33;;
19519;SDS011;9904;52.246;20.898;2022-12-31T01:08:12;60.70;;;26.57;;
19519;SDS011;9904;52.246;20.898;2022-12-31T01:10:38;64.27;;;27.47;;
19519;SDS011;9904;52.246;20.898;2022-12-31T01:13:24;57.33;;;26.37;;
19519;SDS011;9904;52.246;20.898;2022-12-31T01:15:50;59.63;;;26.57;;
19519;SDS011;9904;52.246;20.898;2022-12-31T01:18:17;55.50;;;25.83;;
19519;SDS011;9904;52.246;20.898;2022-12-31T01:20:44;56.20;;;26.37;;
19519;SDS011;9904;52.246;20.898;2022-12-31T01:23:10;57.63;;;25.67;;
19519;SDS011;9904;52.246;20.898;2022-12-31T01:25:38;57.07;;;24.57;;
19519;SDS011;9904;52.246;20.898;2022-12-31T01:28:07;50.77;;;24.70;;
19519;SDS011;9904;52.246;20.898;2022-12-31T01:30:36;53.90;;;24.27;;
19519;SDS011;9904;52.246;20.898;2022-12-31T01:33:04;49.47;;;23.00;;
19519;SDS011;9904;52.246;20.898;2022-12-31T01:35:32;51.80;;;22.63;;
19519;SDS011;9904;52.246;20.898;2022-12-31T01:38:00;48.23;;;21.70;;
19519;SDS011;9904;52.246;20.898;2022-12-31T01:40:27;49.27;;;22.53;;
19519;SDS011;9904;52.246;20.898;2022-12-31T01:42:54;50.27;;;23.27;;
19519;SDS011;9904;52.246;20.898;2022-12-31T01:45:21;49.47;;;22.60;;
19519;SDS011;9904;52.246;20.898;2022-12-31T01:47:52;47.70;;;20.90;;
19519;SDS011;9904;52.246;20.898;2022-12-31T01:50:25;49.93;;;20.67;;
19519;SDS011;9904;52.246;20.898;2022-12-31T01:52:55;47.33;;;22.33;;
19519;SDS011;9904;52.246;20.898;2022-12-31T01:58:04;47.43;;;20.73;;
19519;SDS011;9904;52.246;20.898;2022-12-31T02:00:33;50.83;;;21.43;;
19519;SDS011;9904;52.246;20.898;2022-12-31T02:02:59;48.07;;;21.10;;
19519;SDS011;9904;52.246;20.898;2022-12-31T02:06:11;44.27;;;20.77;;
19519;SDS011;9904;52.246;20.898;2022-12-31T02:08:19;43.50;;;20.27;;
19519;SDS011;9904;52.246;20.898;2022-12-31T02:10:46;47.73;;;20.67;;
19519;SDS011;9904;52.246;20.898;2022-12-31T02:13:13;43.43;;;20.20;;
19519;SDS011;9904;52.246;20.898;2022-12-31T02:15:46;43.43;;;19.03;;
19519;SDS011;9904;52.246;20.898;2022-12-31T02:18:38;46.67;;;20.77;;
19519;SDS011;9904;52.246;20.898;2022-12-31T02:27:21;39.97;;;19.03;;
19519;SDS011;9904;52.246;20.898;2022-12-31T02:37:50;41.37;;;17.77;;
19519;SDS011;9904;52.246;20.898;2022-12-31T02:40:20;38.40;;;18.43;;
19519;SDS011;9904;52.246;20.898;2022-12-31T02:42:47;34.57;;;16.40;;
19519;SDS011;9904;52.246;20.898;2022-12-31T02:45:22;42.60;;;18.20;;
19519;SDS011;9904;52.246;20.898;2022-12-31T02:48:04;39.87;;;17.33;;
19519;SDS011;9904;52.246;20.898;2022-12-31T02:50:46;39.10;;;16.77;;
19519;SDS011;9904;52.246;20.898;2022-12-31T02:56:25;33.23;;;16.03;;
19519;SDS011;9904;52.246;20.898;2022-12-31T02:59:03;35.70;;;16.27;;
19519;SDS011;9904;52.246;20.898;2022-12-31T03:01:54;31.67;;;14.97;;
19519;SDS011;9904;52.246;20.898;2022-12-31T03:04:42;32.67;;;15.23;;
19519;SDS011;9904;52.246;20.898;2022-12-31T03:07:13;34.00;;;15.47;;
19519;SDS011;9904;52.246;20.898;2022-12-31T03:09:42;32.23;;;15.20;;
19519;SDS011;9904;52.246;20.898;2022-12-31T03:12:09;30.53;;;14.70;;
19519;SDS011;9904;52.246;20.898;2022-12-31T03:14:55;33.33;;;14.23;;
19519;SDS011;9904;52.246;20.898;2022-12-31T03:17:22;30.60;;;13.97;;
19519;SDS011;9904;52.246;20.898;2022-12-31T03:19:49;31.83;;;13.87;;
19519;SDS011;9904;52.246;20.898;2022-12-31T03:22:36;28.30;;;14.13;;
19519;SDS011;9904;52.246;20.898;2022-12-31T03:27:54;30.50;;;14.00;;
19519;SDS011;9904;52.246;20.898;2022-12-31T03:30:21;31.07;;;13.90;;
19519;SDS011;9904;52.246;20.898;2022-12-31T03:32:48;31.77;;;14.27;;
19519;SDS011;9904;52.246;20.898;2022-12-31T03:35:16;27.70;;;13.00;;
19519;SDS011;9904;52.246;20.898;2022-12-31T03:37:46;26.53;;;12.67;;
19519;SDS011;9904;52.246;20.898;2022-12-31T03:40:13;26.73;;;12.80;;
19519;SDS011;9904;52.246;20.898;2022-12-31T03:42:40;28.67;;;13.50;;
19519;SDS011;9904;52.246;20.898;2022-12-31T03:45:08;27.80;;;13.37;;
19519;SDS011;9904;52.246;20.898;2022-12-31T03:47:35;33.50;;;14.13;;
19519;SDS011;9904;52.246;20.898;2022-12-31T03:50:02;27.90;;;12.93;;
19519;SDS011;9904;52.246;20.898;2022-12-31T03:52:30;23.17;;;12.20;;
19519;SDS011;9904;52.246;20.898;2022-12-31T03:54:57;25.93;;;11.97;;
19519;SDS011;9904;52.246;20.898;2022-12-31T03:57:23;25.27;;;12.17;;
19519;SDS011;9904;52.246;20.898;2022-12-31T03:59:50;31.47;;;12.87;;
19519;SDS011;9904;52.246;20.898;2022-12-31T04:02:16;24.77;;;11.60;;
19519;SDS011;9904;52.246;20.898;2022-12-31T04:04:51;25.17;;;11.93;;
19519;SDS011;9904;52.246;20.898;2022-12-31T04:07:18;25.70;;;11.50;;
19519;SDS011;9904;52.246;20.898;2022-12-31T04:09:45;24.20;;;12.17;;
19519;SDS011;9904;52.246;20.898;2022-12-31T04:12:11;31.17;;;12.93;;
19519;SDS011;9904;52.246;20.898;2022-12-31T04:14:38;24.03;;;12.17;;
19519;SDS011;9904;52.246;20.898;2022-12-31T04:17:05;27.43;;;12.13;;
19519;SDS011;9904;52.246;20.898;2022-12-31T04:19:31;27.33;;;11.53;;
19519;SDS011;9904;52.246;20.898;2022-12-31T04:21:58;26.73;;;12.47;;
19519;SDS011;9904;52.246;20.898;2022-12-31T04:24:25;26.43;;;12.30;;
19519;SDS011;9904;52.246;20.898;2022-12-31T04:26:51;27.50;;;11.93;;
19519;SDS011;9904;52.246;20.898;2022-12-31T04:29:18;27.43;;;12.23;;
19519;SDS011;9904;52.246;20.898;2022-12-31T04:31:45;25.23;;;12.20;;
19519;SDS011;9904;52.246;20.898;2022-12-31T04:34:12;23.13;;;11.17;;
19519;SDS011;9904;52.246;20.898;2022-12-31T04:36:39;24.00;;;11.07;;
19519;SDS011;9904;52.246;20.898;2022-12-31T04:39:05;26.63;;;11.47;;
19519;SDS011;9904;52.246;20.898;2022-12-31T04:41:32;25.90;;;12.23;;
19519;SDS011;9904;52.246;20.898;2022-12-31T04:43:59;23.80;;;11.40;;
19519;SDS011;9904;52.246;20.898;2022-12-31T04:46:27;25.40;;;11.90;;
19519;SDS011;9904;52.246;20.898;2022-12-31T04:48:56;25.23;;;12.37;;
19519;SDS011;9904;52.246;20.898;2022-12-31T04:51:23;23.67;;;11.40;;
19519;SDS011;9904;52.246;20.898;2022-12-31T04:53:51;24.17;;;12.43;;
19519;SDS011;9904;52.246;20.898;2022-12-31T04:56:18;24.23;;;11.70;;
19519;SDS011;9904;52.246;20.898;2022-12-31T04:58:47;28.63;;;13.10;;
19519;SDS011;9904;52.246;20.898;2022-12-31T05:01:14;29.63;;;13.23;;
19519;SDS011;9904;52.246;20.898;2022-12-31T05:03:41;25.73;;;11.93;;
19519;SDS011;9904;52.246;20.898;2022-12-31T05:06:10;28.20;;;12.50;;
19519;SDS011;9904;52.246;20.898;2022-12-31T05:08:40;24.20;;;11.97;;
19519;SDS011;9904;52.246;20.898;2022-12-31T05:11:07;26.03;;;12.07;;
19519;SDS011;9904;52.246;20.898;2022-12-31T05:13:34;27.10;;;11.90;;
19519;SDS011;9904;52.246;20.898;2022-12-31T05:16:01;23.33;;;11.87;;
19519;SDS011;9904;52.246;20.898;2022-12-31T05:18:28;25.10;;;12.20;;
19519;SDS011;9904;52.246;20.898;2022-12-31T05:20:55;26.23;;;13.53;;
19519;SDS011;9904;52.246;20.898;2022-12-31T05:23:21;26.40;;;12.50;;
19519;SDS011;9904;52.246;20.898;2022-12-31T05:25:49;27.93;;;12.40;;
19519;SDS011;9904;52.246;20.898;2022-12-31T05:28:15;27.67;;;13.03;;
19519;SDS011;9904;52.246;20.898;2022-12-31T05:30:42;25.03;;;12.27;;
19519;SDS011;9904;52.246;20.898;2022-12-31T05:33:09;26.20;;;12.70;;
19519;SDS011;9904;52.246;20.898;2022-12-31T05:35:36;26.20;;;12.40;;
19519;SDS011;9904;52.246;20.898;2022-12-31T05:38:02;22.93;;;11.87;;
19519;SDS011;9904;52.246;20.898;2022-12-31T05:40:29;26.10;;;12.63;;
19519;SDS011;9904;52.246;20.898;2022-12-31T05:42:56;29.13;;;12.00;;
19519;SDS011;9904;52.246;20.898;2022-12-31T05:45:22;28.80;;;12.73;;
19519;SDS011;9904;52.246;20.898;2022-12-31T05:47:56;26.63;;;11.77;;
19519;SDS011;9904;52.246;20.898;2022-12-31T05:50:22;23.83;;;11.27;;
19519;SDS011;9904;52.246;20.898;2022-12-31T05:52:49;23.97;;;12.17;;
19519;SDS011;9904;52.246;20.898;2022-12-31T05:55:16;23.87;;;10.93;;
19519;SDS011;9904;52.246;20.898;2022-12-31T05:57:42;24.97;;;11.80;;
19519;SDS011;9904;52.246;20.898;2022-12-31T06:00:09;25.00;;;11.60;;
19519;SDS011;9904;52.246;20.898;2022-12-31T06:02:36;26.53;;;12.37;;
19519;SDS011;9904;52.246;20.898;2022-12-31T06:05:03;25.07;;;12.13;;
19519;SDS011;9904;52.246;20.898;2022-12-31T06:07:30;21.27;;;11.17;;
19519;SDS011;9904;52.246;20.898;2022-12-31T06:09:56;24.73;;;11.93;;
19519;SDS011;9904;52.246;20.898;2022-12-31T06:12:23;26.53;;;12.03;;
19519;SDS011;9904;52.246;20.898;2022-12-31T06:14:50;23.60;;;10.87;;
19519;SDS011;9904;52.246;20.898;2022-12-31T06:17:16;22.23;;;10.77;;
19519;SDS011;9904;52.246;20.898;2022-12-31T06:19:44;24.40;;;11.67;;
19519;SDS011;9904;52.246;20.898;2022-12-31T06:22:12;21.23;;;11.27;;
19519;SDS011;9904;52.246;20.898;2022-12-31T06:24:38;21.73;;;11.33;;
19519;SDS011;9904;52.246;20.898;2022-12-31T06:27:05;24.33;;;11.20;;
19519;SDS011;9904;52.246;20.898;2022-12-31T06:29:32;24.40;;;11.07;;
19519;SDS011;9904;52.246;20.898;2022-12-31T06:31:58;24.63;;;11.80;;
19519;SDS011;9904;52.246;20.898;2022-12-31T06:34:25;22.57;;;10.63;;
19519;SDS011;9904;52.246;20.898;2022-12-31T06:36:51;25.43;;;11.47;;
19519;SDS011;9904;52.246;20.898;2022-12-31T06:39:18;23.40;;;11.63;;
19519;SDS011;9904;52.246;20.898;2022-12-31T06:41:45;24.27;;;11.23;;
19519;SDS011;9904;52.246;20.898;2022-12-31T06:44:11;24.07;;;10.93;;
19519;SDS011;9904;52.246;20.898;2022-12-31T06:46:40;22.30;;;11.07;;
19519;SDS011;9904;52.246;20.898;2022-12-31T06:49:06;20.40;;;10.33;;
19519;SDS011;9904;52.246;20.898;2022-12-31T06:51:33;21.93;;;10.73;;
19519;SDS011;9904;52.246;20.898;2022-12-31T06:53:59;24.70;;;10.90;;
19519;SDS011;9904;52.246;20.898;2022-12-31T06:56:26;21.37;;;10.17;;
19519;SDS011;9904;52.246;20.898;2022-12-31T06:59:00;22.17;;;10.23;;
19519;SDS011;9904;52.246;20.898;2022-12-31T07:10:33;17.70;;;9.90;;
19519;SDS011;9904;52.246;20.898;2022-12-31T07:16:52;20.27;;;10.00;;
19519;SDS011;9904;52.246;20.898;2022-12-31T07:19:48;21.37;;;9.87;;
19519;SDS011;9904;52.246;20.898;2022-12-31T07:22:23;21.13;;;10.40;;
19519;SDS011;9904;52.246;20.898;2022-12-31T07:24:50;20.43;;;10.00;;
19519;SDS011;9904;52.246;20.898;2022-12-31T07:32:59;19.50;;;9.57;;
19519;SDS011;9904;52.246;20.898;2022-12-31T07:35:54;21.40;;;9.77;;
19519;SDS011;9904;52.246;20.898;2022-12-31T07:46:53;20.53;;;9.00;;
19519;SDS011;9904;52.246;20.898;2022-12-31T07:49:22;18.10;;;9.13;;
19519;SDS011;9904;52.246;20.898;2022-12-31T07:51:50;19.33;;;8.70;;
19519;SDS011;9904;52.246;20.898;2022-12-31T07:54:18;18.53;;;9.20;;
19519;SDS011;9904;52.246;20.898;2022-12-31T07:56:49;16.73;;;8.63;;
19519;SDS011;9904;52.246;20.898;2022-12-31T07:59:21;19.43;;;9.30;;
19519;SDS011;9904;52.246;20.898;2022-12-31T08:04:48;17.73;;;8.40;;
19519;SDS011;9904;52.246;20.898;2022-12-31T08:12:48;18.93;;;8.90;;
19519;SDS011;9904;52.246;20.898;2022-12-31T08:15:16;19.33;;;9.00;;
19519;SDS011;9904;52.246;20.898;2022-12-31T08:17:44;19.03;;;8.20;;
19519;SDS011;9904;52.246;20.898;2022-12-31T08:20:15;18.77;;;8.37;;
19519;SDS011;9904;52.246;20.898;2022-12-31T08:25:46;18.73;;;7.97;;
19519;SDS011;9904;52.246;20.898;2022-12-31T08:29:12;16.20;;;8.00;;
19519;SDS011;9904;52.246;20.898;2022-12-31T08:31:27;15.50;;;8.07;;
19519;SDS011;9904;52.246;20.898;2022-12-31T08:34:16;17.77;;;7.90;;
19519;SDS011;9904;52.246;20.898;2022-12-31T08:42:13;15.70;;;7.83;;
19519;SDS011;9904;52.246;20.898;2022-12-31T08:44:47;15.33;;;6.83;;
19519;SDS011;9904;52.246;20.898;2022-12-31T08:50:14;17.30;;;8.27;;
19519;SDS011;9904;52.246;20.898;2022-12-31T08:52:42;17.97;;;7.97;;
19519;SDS011;9904;52.246;20.898;2022-12-31T08:55:13;15.10;;;7.40;;
19519;SDS011;9904;52.246;20.898;2022-12-31T08:57:52;14.53;;;8.00;;
19519;SDS011;9904;52.246;20.898;2022-12-31T09:00:29;15.77;;;7.20;;
19519;SDS011;9904;52.246;20.898;2022-12-31T09:05:55;13.23;;;6.83;;
19519;SDS011;9904;52.246;20.898;2022-12-31T09:11:22;13.33;;;6.30;;
19519;SDS011;9904;52.246;20.898;2022-12-31T09:19:23;16.50;;;6.53;;
19519;SDS011;9904;52.246;20.898;2022-12-31T09:21:49;16.43;;;6.30;;
19519;SDS011;9904;52.246;20.898;2022-12-31T09:24:16;11.93;;;6.73;;
19519;SDS011;9904;52.246;20.898;2022-12-31T09:32:20;13.30;;;6.87;;
19519;SDS011;9904;52.246;20.898;2022-12-31T09:35:11;14.87;;;6.67;;
19519;SDS011;9904;52.246;20.898;2022-12-31T09:37:45;13.77;;;6.63;;
19519;SDS011;9904;52.246;20.898;2022-12-31T09:49:01;9.47;;;5.13;;
19519;SDS011;9904;52.246;20.898;2022-12-31T09:57:01;10.67;;;5.73;;
19519;SDS011;9904;52.246;20.898;2022-12-31T10:02:15;10.47;;;5.50;;
19519;SDS011;9904;52.246;20.898;2022-12-31T10:13:34;10.10;;;5.07;;
19519;SDS011;9904;52.246;20.898;2022-12-31T10:27:32;7.33;;;3.97;;
19519;SDS011;9904;52.246;20.898;2022-12-31T10:30:19;10.27;;;5.03;;
19519;SDS011;9904;52.246;20.898;2022-12-31T10:43:58;9.80;;;5.00;;
19519;SDS011;9904;52.246;20.898;2022-12-31T10:54:56;10.87;;;5.10;;
19519;SDS011;9904;52.246;20.898;2022-12-31T10:57:50;8.23;;;4.43;;
19519;SDS011;9904;52.246;20.898;2022-12-31T11:00:29;9.17;;;4.90;;
19519;SDS011;9904;52.246;20.898;2022-12-31T11:22:42;9.83;;;4.70;;
19519;SDS011;9904;52.246;20.898;2022-12-31T11:25:28;10.53;;;4.43;;
19519;SDS011;9904;52.246;20.898;2022-12-31T11:28:01;9.03;;;4.53;;
19519;SDS011;9904;52.246;20.898;2022-12-31T11:39:17;12.00;;;4.53;;
19519;SDS011;9904;52.246;20.898;2022-12-31T11:42:17;8.10;;;4.57;;
19519;SDS011;9904;52.246;20.898;2022-12-31T11:44:51;9.03;;;4.30;;
19519;SDS011;9904;52.246;20.898;2022-12-31T11:47:42;9.83;;;4.53;;
19519;SDS011;9904;52.246;20.898;2022-12-31T11:56:15;13.30;;;4.63;;
19519;SDS011;9904;52.246;20.898;2022-12-31T11:58:45;9.83;;;4.43;;
19519;SDS011;9904;52.246;20.898;2022-12-31T12:01:29;7.37;;;4.07;;
19519;SDS011;9904;52.246;20.898;2022-12-31T12:03:59;9.50;;;4.50;;
19519;SDS011;9904;52.246;20.898;2022-12-31T12:06:27;10.60;;;4.87;;
19519;SDS011;9904;52.246;20.898;2022-12-31T12:08:58;9.50;;;4.37;;
19519;SDS011;9904;52.246;20.898;2022-12-31T12:11:28;9.40;;;3.77;;
19519;SDS011;9904;52.246;20.898;2022-12-31T12:13:56;9.53;;;4.80;;
19519;SDS011;9904;52.246;20.898;2022-12-31T12:16:23;9.33;;;3.90;;
19519;SDS011;9904;52.246;20.898;2022-12-31T12:19:06;10.97;;;4.33;;
19519;SDS011;9904;52.246;20.898;2022-12-31T12:21:44;8.50;;;3.97;;
19519;SDS011;9904;52.246;20.898;2022-12-31T12:26:52;8.40;;;4.10;;
19519;SDS011;9904;52.246;20.898;2022-12-31T12:29:20;8.67;;;4.57;;
19519;SDS011;9904;52.246;20.898;2022-12-31T12:34:32;9.07;;;4.17;;
19519;SDS011;9904;52.246;20.898;2022-12-31T12:37:00;7.57;;;3.90;;
19519;SDS011;9904;52.246;20.898;2022-12-31T12:39:29;9.73;;;4.07;;
19519;SDS011;9904;52.246;20.898;2022-12-31T12:44:27;6.67;;;3.73;;
19519;SDS011;9904;52.246;20.898;2022-12-31T12:46:54;11.77;;;4.10;;
19519;SDS011;9904;52.246;20.898;2022-12-31T12:49:22;7.87;;;4.03;;
19519;SDS011;9904;52.246;20.898;2022-12-31T12:52:02;7.53;;;4.20;;
19519;SDS011;9904;52.246;20.898;2022-12-31T12:54:40;7.47;;;3.73;;
19519;SDS011;9904;52.246;20.898;2022-12-31T12:57:15;8.37;;;4.10;;
19519;SDS011;9904;52.246;20.898;2022-12-31T13:08:36;8.70;;;4.43;;
19519;SDS011;9904;52.246;20.898;2022-12-31T13:11:16;10.57;;;4.60;;
19519;SDS011;9904;52.246;20.898;2022-12-31T13:27:53;7.50;;;4.03;;
19519;SDS011;9904;52.246;20.898;2022-12-31T13:30:39;7.77;;;3.90;;
19519;SDS011;9904;52.246;20.898;2022-12-31T13:33:16;12.67;;;4.30;;
19519;SDS011;9904;52.246;20.898;2022-12-31T15:01:02;10.10;;;4.77;;
19519;SDS011;9904;52.246;20.898;2022-12-31T15:03:35;9.67;;;4.30;;
19519;SDS011;9904;52.246;20.898;2022-12-31T15:09:07;9.97;;;4.30;;
19519;SDS011;9904;52.246;20.898;2022-12-31T15:14:44;10.73;;;4.47;;
19519;SDS011;9904;52.246;20.898;2022-12-31T15:23:50;8.80;;;4.00;;
19519;SDS011;9904;52.246;20.898;2022-12-31T15:25:59;9.10;;;4.63;;
19519;SDS011;9904;52.246;20.898;2022-12-31T15:31:00;10.33;;;5.00;;
19519;SDS011;9904;52.246;20.898;2022-12-31T15:33:38;7.70;;;4.10;;
19519;SDS011;9904;52.246;20.898;2022-12-31T15:36:11;7.83;;;3.93;;
19519;SDS011;9904;52.246;20.898;2022-12-31T15:38:39;8.47;;;4.00;;
19519;SDS011;9904;52.246;20.898;2022-12-31T15:41:27;7.20;;;3.97;;
19519;SDS011;9904;52.246;20.898;2022-12-31T15:44:04;8.37;;;4.23;;
19519;SDS011;9904;52.246;20.898;2022-12-31T15:46:35;8.63;;;4.43;;
19519;SDS011;9904;52.246;20.898;2022-12-31T15:49:10;10.83;;;4.87;;
19519;SDS011;9904;52.246;20.898;2022-12-31T15:52:03;8.40;;;4.30;;
19519;SDS011;9904;52.246;20.898;2022-12-31T15:54:33;9.57;;;4.53;;
19519;SDS011;9904;52.246;20.898;2022-12-31T15:57:03;8.20;;;4.30;;
19519;SDS011;9904;52.246;20.898;2022-12-31T15:59:34;9.63;;;4.57;;
19519;SDS011;9904;52.246;20.898;2022-12-31T16:02:03;11.63;;;4.73;;
19519;SDS011;9904;52.246;20.898;2022-12-31T16:04:30;10.47;;;4.87;;
19519;SDS011;9904;52.246;20.898;2022-12-31T16:07:04;10.57;;;4.60;;
19519;SDS011;9904;52.246;20.898;2022-12-31T16:09:32;8.20;;;4.23;;
19519;SDS011;9904;52.246;20.898;2022-12-31T16:12:00;9.50;;;4.30;;
19519;SDS011;9904;52.246;20.898;2022-12-31T16:14:35;7.63;;;4.00;;
19519;SDS011;9904;52.246;20.898;2022-12-31T16:17:04;9.73;;;4.40;;
19519;SDS011;9904;52.246;20.898;2022-12-31T16:19:41;9.17;;;4.33;;
19519;SDS011;9904;52.246;20.898;2022-12-31T16:22:13;11.30;;;4.43;;
19519;SDS011;9904;52.246;20.898;2022-12-31T16:24:42;9.13;;;4.20;;
19519;SDS011;9904;52.246;20.898;2022-12-31T16:27:29;8.77;;;4.00;;
19519;SDS011;9904;52.246;20.898;2022-12-31T16:29:57;11.97;;;4.10;;
19519;SDS011;9904;52.246;20.898;2022-12-31T16:32:26;9.33;;;3.90;;
19519;SDS011;9904;52.246;20.898;2022-12-31T16:35:20;10.13;;;4.47;;
19519;SDS011;9904;52.246;20.898;2022-12-31T16:40:33;9.23;;;4.07;;
19519;SDS011;9904;52.246;20.898;2022-12-31T16:43:00;10.57;;;4.10;;
19519;SDS011;9904;52.246;20.898;2022-12-31T16:45:31;7.80;;;4.20;;
19519;SDS011;9904;52.246;20.898;2022-12-31T16:48:05;8.30;;;3.70;;
19519;SDS011;9904;52.246;20.898;2022-12-31T16:50:46;10.63;;;3.67;;
19519;SDS011;9904;52.246;20.898;2022-12-31T16:53:15;12.03;;;4.00;;
19519;SDS011;9904;52.246;20.898;2022-12-31T16:55:51;7.57;;;3.73;;
19519;SDS011;9904;52.246;20.898;2022-12-31T16:58:23;7.90;;;4.03;;
19519;SDS011;9904;52.246;20.898;2022-12-31T17:00:53;10.43;;;3.73;;
19519;SDS011;9904;52.246;20.898;2022-12-31T17:03:26;7.67;;;4.03;;
19519;SDS011;9904;52.246;20.898;2022-12-31T17:08:39;7.23;;;3.87;;
19519;SDS011;9904;52.246;20.898;2022-12-31T17:11:25;8.30;;;3.70;;
19519;SDS011;9904;52.246;20.898;2022-12-31T17:14:10;8.37;;;3.67;;
19519;SDS011;9904;52.246;20.898;2022-12-31T17:19:39;7.67;;;3.60;;
19519;SDS011;9904;52.246;20.898;2022-12-31T17:25:05;6.97;;;3.50;;
19519;SDS011;9904;52.246;20.898;2022-12-31T17:27:34;7.60;;;3.30;;
19519;SDS011;9904;52.246;20.898;2022-12-31T17:30:21;9.33;;;3.90;;
19519;SDS011;9904;52.246;20.898;2022-12-31T17:33:01;7.30;;;3.70;;
19519;SDS011;9904;52.246;20.898;2022-12-31T17:35:30;8.43;;;3.60;;
19519;SDS011;9904;52.246;20.898;2022-12-31T17:40:43;8.67;;;4.10;;
19519;SDS011;9904;52.246;20.898;2022-12-31T17:43:22;8.17;;;4.10;;
19519;SDS011;9904;52.246;20.898;2022-12-31T17:45:51;8.70;;;3.90;;
19519;SDS011;9904;52.246;20.898;2022-12-31T17:48:21;9.97;;;4.27;;
19519;SDS011;9904;52.246;20.898;2022-12-31T17:50:50;11.30;;;4.10;;
19519;SDS011;9904;52.246;20.898;2022-12-31T17:53:21;10.43;;;4.10;;
19519;SDS011;9904;52.246;20.898;2022-12-31T17:55:49;9.63;;;4.50;;
19519;SDS011;9904;52.246;20.898;2022-12-31T17:58:19;12.57;;;3.80;;
19519;SDS011;9904;52.246;20.898;2022-12-31T18:00:55;12.07;;;4.07;;
19519;SDS011;9904;52.246;20.898;2022-12-31T18:03:22;8.53;;;3.67;;
19519;SDS011;9904;52.246;20.898;2022-12-31T18:05:49;9.70;;;4.23;;
19519;SDS011;9904;52.246;20.898;2022-12-31T18:08:16;8.67;;;3.80;;
19519;SDS011;9904;52.246;20.898;2022-12-31T18:10:43;7.03;;;3.23;;
19519;SDS011;9904;52.246;20.898;2022-12-31T18:13:12;8.73;;;3.47;;
19519;SDS011;9904;52.246;20.898;2022-12-31T18:15:41;8.30;;;3.97;;
19519;SDS011;9904;52.246;20.898;2022-12-31T18:18:26;7.13;;;3.77;;
19519;SDS011;9904;52.246;20.898;2022-12-31T18:20:58;9.77;;;3.93;;
19519;SDS011;9904;52.246;20.898;2022-12-31T18:23:27;8.90;;;3.90;;
19519;SDS011;9904;52.246;20.898;2022-12-31T18:25:56;11.70;;;4.30;;
19519;SDS011;9904;52.246;20.898;2022-12-31T18:28:22;10.10;;;3.63;;
19519;SDS011;9904;52.246;20.898;2022-12-31T18:30:49;10.20;;;3.90;;
19519;SDS011;9904;52.246;20.898;2022-12-31T18:33:16;10.83;;;4.27;;
19519;SDS011;9904;52.246;20.898;2022-12-31T18:35:48;8.13;;;4.20;;
19519;SDS011;9904;52.246;20.898;2022-12-31T18:38:34;8.30;;;4.47;;
19519;SDS011;9904;52.246;20.898;2022-12-31T18:41:01;10.33;;;4.70;;
19519;SDS011;9904;52.246;20.898;2022-12-31T18:43:27;14.87;;;4.50;;
19519;SDS011;9904;52.246;20.898;2022-12-31T18:45:54;11.73;;;4.23;;
19519;SDS011;9904;52.246;20.898;2022-12-31T18:48:21;9.07;;;4.07;;
19519;SDS011;9904;52.246;20.898;2022-12-31T18:50:48;10.00;;;3.90;;
19519;SDS011;9904;52.246;20.898;2022-12-31T18:53:21;8.30;;;3.90;;
19519;SDS011;9904;52.246;20.898;2022-12-31T18:55:49;10.83;;;4.80;;
19519;SDS011;9904;52.246;20.898;2022-12-31T18:58:21;8.07;;;3.63;;
19519;SDS011;9904;52.246;20.898;2022-12-31T19:00:49;8.07;;;4.07;;
19519;SDS011;9904;52.246;20.898;2022-12-31T19:03:26;6.30;;;3.60;;
19519;SDS011;9904;52.246;20.898;2022-12-31T19:05:53;10.70;;;4.27;;
19519;SDS011;9904;52.246;20.898;2022-12-31T19:08:21;11.80;;;4.07;;
19519;SDS011;9904;52.246;20.898;2022-12-31T19:10:51;8.77;;;4.37;;
19519;SDS011;9904;52.246;20.898;2022-12-31T19:13:21;11.43;;;4.77;;
19519;SDS011;9904;52.246;20.898;2022-12-31T19:15:49;7.90;;;4.10;;
19519;SDS011;9904;52.246;20.898;2022-12-31T19:18:17;9.03;;;4.40;;
19519;SDS011;9904;52.246;20.898;2022-12-31T19:20:50;11.73;;;4.60;;
19519;SDS011;9904;52.246;20.898;2022-12-31T19:23:19;9.53;;;4.27;;
19519;SDS011;9904;52.246;20.898;2022-12-31T19:25:49;9.87;;;5.07;;
19519;SDS011;9904;52.246;20.898;2022-12-31T19:28:17;11.70;;;4.73;;
19519;SDS011;9904;52.246;20.898;2022-12-31T19:30:47;8.77;;;4.00;;
19519;SDS011;9904;52.246;20.898;2022-12-31T19:33:14;8.77;;;4.00;;
19519;SDS011;9904;52.246;20.898;2022-12-31T19:35:42;8.60;;;4.50;;
19519;SDS011;9904;52.246;20.898;2022-12-31T19:38:19;12.90;;;5.20;;
19519;SDS011;9904;52.246;20.898;2022-12-31T19:40:46;8.40;;;4.30;;
19519;SDS011;9904;52.246;20.898;2022-12-31T19:43:14;8.93;;;4.43;;
19519;SDS011;9904;52.246;20.898;2022-12-31T19:45:46;10.90;;;5.03;;
19519;SDS011;9904;52.246;20.898;2022-12-31T19:48:18;10.43;;;4.73;;
19519;SDS011;9904;52.246;20.898;2022-12-31T19:50:57;8.63;;;4.37;;
19519;SDS011;9904;52.246;20.898;2022-12-31T19:53:25;11.43;;;4.03;;
19519;SDS011;9904;52.246;20.898;2022-12-31T19:55:52;9.67;;;4.40;;
19519;SDS011;9904;52.246;20.898;2022-12-31T19:58:23;9.17;;;4.63;;
19519;SDS011;9904;52.246;20.898;2022-12-31T20:00:51;8.27;;;4.20;;
19519;SDS011;9904;52.246;20.898;2022-12-31T20:03:27;11.07;;;4.77;;
19519;SDS011;9904;52.246;20.898;2022-12-31T20:06:09;10.13;;;4.50;;
19519;SDS011;9904;52.246;20.898;2022-12-31T20:08:39;11.67;;;4.20;;
19519;SDS011;9904;52.246;20.898;2022-12-31T20:11:09;11.07;;;4.53;;
19519;SDS011;9904;52.246;20.898;2022-12-31T20:13:40;10.77;;;4.57;;
19519;SDS011;9904;52.246;20.898;2022-12-31T20:16:08;9.13;;;4.73;;
19519;SDS011;9904;52.246;20.898;2022-12-31T20:18:36;9.20;;;4.40;;